Time;durP1;ratioP1;P1;durP2;ratioP2;P2;SDS_P1;SDS_P2;PMS_P1;PMS_P2;Temp;Humidity;BMP_temperature;BMP_pressure;BME280_temperature;BME280_humidity;BME280_pressure;Samples;Min_cycle;Max_cycle;Signal;HPM_P1;HPM_P2
2022/01/11 00:02:25;;;;;;;17.40;8.60;;;;;;;4.70;72.24;101978.00;5102274;27;20234;-66
2022/01/11 00:04:53;;;;;;;21.80;9.90;;;;;;;4.40;72.60;101967.16;5103940;28;20235;-67
2022/01/11 00:07:22;;;;;;;20.43;9.23;;;;;;;4.38;72.89;101977.75;5101551;27;20220;-67
2022/01/11 00:09:53;;;;;;;22.03;9.50;;;;;;;4.29;73.19;101972.09;5097957;27;20667;-67
2022/01/11 00:12:20;;;;;;;20.13;9.20;;;;;;;4.43;73.13;101974.91;5098968;28;20349;-67
2022/01/11 00:14:49;;;;;;;21.90;9.60;;;;;;;4.39;72.78;101974.22;5088027;28;20237;-66
2022/01/11 00:17:17;;;;;;;21.17;9.03;;;;;;;4.50;72.99;101982.41;5076585;28;20262;-66
2022/01/11 00:19:48;;;;;;;22.43;8.90;;;;;;;4.49;72.52;101983.34;5079287;28;20236;-66
2022/01/11 00:22:19;;;;;;;26.53;9.27;;;;;;;4.19;73.51;101982.16;5079818;28;20279;-66
2022/01/11 00:24:46;;;;;;;24.37;10.10;;;;;;;4.10;74.22;101978.19;5082037;28;20229;-66
2022/01/11 00:27:14;;;;;;;21.97;10.07;;;;;;;4.35;73.57;101982.28;5078991;28;20286;-66
2022/01/11 00:29:45;;;;;;;20.60;9.13;;;;;;;4.56;72.54;101991.81;5086776;28;20210;-67
2022/01/11 00:32:17;;;;;;;22.30;9.63;;;;;;;4.50;72.48;101976.31;5080646;28;20699;-67
2022/01/11 00:34:50;;;;;;;25.47;9.80;;;;;;;4.49;72.75;101979.84;5085209;28;20293;-67
2022/01/11 00:37:20;;;;;;;20.37;9.73;;;;;;;4.49;72.67;101985.09;5082094;28;20290;-66
2022/01/11 00:39:50;;;;;;;22.07;10.23;;;;;;;4.62;72.31;101986.25;5086358;28;20252;-66
2022/01/11 00:42:20;;;;;;;18.67;9.47;;;;;;;4.38;73.05;101993.53;5077917;28;20213;-66
2022/01/11 00:44:48;;;;;;;23.03;9.77;;;;;;;4.48;72.94;101993.94;5086336;28;20710;-66
2022/01/11 00:47:17;;;;;;;24.90;10.93;;;;;;;4.78;72.07;102002.97;5091051;28;20304;-66
2022/01/11 00:49:45;;;;;;;24.13;9.77;;;;;;;4.69;71.87;101998.16;5074914;28;20302;-66
2022/01/11 00:52:14;;;;;;;19.93;9.40;;;;;;;4.75;71.80;101997.84;5076677;28;20209;-66
2022/01/11 00:54:42;;;;;;;24.43;10.33;;;;;;;4.88;71.41;102009.50;5081003;28;20207;-66
2022/01/11 00:57:10;;;;;;;26.97;11.63;;;;;;;4.47;72.23;102003.59;5081218;28;20400;-67
2022/01/11 00:59:38;;;;;;;24.77;10.83;;;;;;;4.77;72.02;101998.66;5084396;28;20261;-69
2022/01/11 01:02:06;;;;;;;22.37;9.73;;;;;;;4.84;71.96;102009.69;5078443;28;20211;-67
2022/01/11 01:04:35;;;;;;;21.13;10.23;;;;;;;4.85;71.77;102006.16;5077168;28;20717;-67
2022/01/11 01:07:03;;;;;;;22.43;9.63;;;;;;;4.62;72.65;102015.16;5080860;28;20210;-67
2022/01/11 01:09:40;;;;;;;23.43;11.07;;;;;;;4.69;72.55;102008.69;5079971;28;20211;-66
2022/01/11 01:12:09;;;;;;;22.30;9.47;;;;;;;4.92;71.53;102005.78;5082718;28;20238;-66
2022/01/11 01:14:37;;;;;;;23.83;10.23;;;;;;;4.87;71.56;102015.69;5085297;28;20592;-66
2022/01/11 01:17:04;;;;;;;20.87;10.07;;;;;;;4.84;72.13;102023.69;5084863;28;20210;-66
2022/01/11 01:19:32;;;;;;;21.40;10.73;;;;;;;5.05;71.46;102015.72;5084628;28;20229;-66
2022/01/11 01:22:01;;;;;;;19.37;9.67;;;;;;;4.85;71.68;102019.28;5082400;28;20310;-66
2022/01/11 01:24:29;;;;;;;18.03;8.80;;;;;;;4.96;71.62;102021.41;5079541;28;20210;-66
2022/01/11 01:26:57;;;;;;;23.67;9.83;;;;;;;5.02;71.38;102021.09;5090509;28;20275;-66
2022/01/11 01:29:25;;;;;;;22.73;10.83;;;;;;;4.90;71.44;102017.31;5080512;28;20242;-66
2022/01/11 01:31:53;;;;;;;19.80;9.50;;;;;;;4.79;71.97;102024.84;5089593;28;20821;-66
2022/01/11 01:34:20;;;;;;;20.80;10.20;;;;;;;4.77;72.20;102022.28;5088692;28;20207;-66
2022/01/11 01:36:48;;;;;;;23.93;10.40;;;;;;;4.66;72.87;102021.94;5090294;28;20813;-66
2022/01/11 01:39:17;;;;;;;30.30;11.40;;;;;;;4.86;71.64;102026.25;5085907;28;20257;-66
2022/01/11 01:41:46;;;;;;;22.43;10.83;;;;;;;4.89;71.56;102020.88;5083495;28;20661;-67
2022/01/11 01:44:14;;;;;;;18.80;10.07;;;;;;;4.79;71.71;102022.22;5077759;28;20217;-66
2022/01/11 01:46:42;;;;;;;22.83;10.33;;;;;;;4.89;71.34;102026.97;5074247;28;20298;-66
2022/01/11 01:49:16;;;;;;;20.47;10.53;;;;;;;4.85;71.87;102029.81;5091593;28;20797;-66
2022/01/11 01:51:44;;;;;;;24.17;10.47;;;;;;;4.64;72.07;102026.44;5084347;28;20278;-66
2022/01/11 01:54:13;;;;;;;19.67;10.40;;;;;;;4.72;72.44;102028.72;5074338;28;20246;-65
2022/01/11 01:56:44;;;;;;;21.97;10.23;;;;;;;4.67;72.25;102028.91;5077452;28;20246;-66
2022/01/11 01:59:12;;;;;;;21.97;10.13;;;;;;;4.48;73.05;102025.47;5076867;28;20311;-66
2022/01/11 02:01:45;;;;;;;23.90;11.17;;;;;;;4.59;73.19;102031.03;5076365;28;20215;-67
2022/01/11 02:04:16;;;;;;;20.20;10.13;;;;;;;4.73;72.63;102030.41;5082985;28;20252;-66
2022/01/11 02:06:44;;;;;;;22.63;10.47;;;;;;;4.82;72.30;102033.47;5075705;28;20305;-67
2022/01/11 02:09:15;;;;;;;20.80;10.17;;;;;;;4.55;73.20;102032.13;5082565;28;20317;-66
2022/01/11 02:11:44;;;;;;;25.80;11.27;;;;;;;4.55;73.42;102040.03;5081116;28;20217;-66
2022/01/11 02:14:12;;;;;;;18.60;10.27;;;;;;;4.83;72.41;102037.78;5098835;27;20207;-66
2022/01/11 02:16:40;;;;;;;22.23;9.53;;;;;;;4.60;73.45;102040.63;5104026;27;20200;-66
2022/01/11 02:19:08;;;;;;;19.07;10.53;;;;;;;4.85;72.57;102046.44;5098219;28;20217;-66
2022/01/11 02:21:38;;;;;;;22.10;10.43;;;;;;;4.88;72.58;102046.31;5100043;28;20244;-65
2022/01/11 02:24:06;;;;;;;20.23;10.23;;;;;;;4.96;72.13;102042.44;5100419;28;20308;-66
2022/01/11 02:26:34;;;;;;;19.93;9.57;;;;;;;4.97;72.15;102050.25;5108653;27;20739;-66
2022/01/11 02:29:02;;;;;;;21.47;9.97;;;;;;;5.05;71.77;102049.88;5098475;27;20524;-66
2022/01/11 02:31:36;;;;;;;21.10;10.33;;;;;;;4.92;72.12;102053.09;5102125;28;20217;-71
2022/01/11 02:34:04;;;;;;;22.37;9.60;;;;;;;4.93;72.16;102053.94;5104490;28;20305;-65
2022/01/11 02:36:35;;;;;;;25.07;9.73;;;;;;;5.06;71.96;102046.34;5107415;27;20210;-66
2022/01/11 02:39:05;;;;;;;22.83;9.77;;;;;;;5.01;72.07;102048.34;5099438;28;20309;-67
2022/01/11 02:41:33;;;;;;;25.17;11.17;;;;;;;4.96;72.58;102052.97;5105434;27;20300;-67
2022/01/11 02:44:04;;;;;;;21.47;9.23;;;;;;;5.07;71.94;102050.69;5112845;27;20219;-67
2022/01/11 02:46:31;;;;;;;20.27;10.13;;;;;;;5.02;71.96;102053.50;5105017;27;20209;-67
2022/01/11 02:48:59;;;;;;;24.17;10.40;;;;;;;5.02;72.21;102050.03;5105972;28;20213;-67
2022/01/11 02:51:27;;;;;;;22.40;9.90;;;;;;;5.09;71.90;102047.06;5105615;28;20206;-68
2022/01/11 02:53:57;;;;;;;22.70;10.23;;;;;;;5.07;72.01;102040.16;5106464;28;20206;-65
2022/01/11 02:56:27;;;;;;;25.63;10.17;;;;;;;5.09;72.00;102044.44;5098888;28;20237;-67
2022/01/11 02:58:54;;;;;;;19.17;9.30;;;;;;;5.00;72.33;102044.00;5097058;28;20206;-65
2022/01/11 03:01:22;;;;;;;17.80;8.57;;;;;;;4.99;72.49;102044.94;5104725;28;20678;-65
2022/01/11 03:03:51;;;;;;;21.40;9.60;;;;;;;5.14;72.04;102045.03;5103042;28;20209;-65
2022/01/11 03:06:19;;;;;;;24.33;9.67;;;;;;;5.13;71.99;102043.34;5096390;28;20292;-65
2022/01/11 03:08:48;;;;;;;25.00;9.60;;;;;;;5.12;71.94;102040.78;5101451;28;20220;-65
2022/01/11 03:11:19;;;;;;;22.60;9.80;;;;;;;4.66;73.25;102044.78;5101635;28;20210;-66
2022/01/11 03:13:49;;;;;;;21.67;9.57;;;;;;;4.79;73.51;102045.88;5076181;28;20269;-66
2022/01/11 03:16:17;;;;;;;24.13;9.77;;;;;;;5.05;72.50;102055.16;5082560;28;20666;-66
2022/01/11 03:18:46;;;;;;;21.73;9.53;;;;;;;4.87;73.47;102059.50;5089559;28;20253;-66
2022/01/11 03:21:15;;;;;;;19.37;9.53;;;;;;;5.00;72.65;102054.53;5083637;28;20325;-66
2022/01/11 03:23:43;;;;;;;21.37;9.90;;;;;;;5.15;72.11;102056.41;5087775;28;20237;-66
2022/01/11 03:26:11;;;;;;;22.93;9.60;;;;;;;5.11;72.15;102060.09;5084833;28;20246;-65
2022/01/11 03:28:38;;;;;;;19.80;9.40;;;;;;;4.98;72.55;102065.13;5078914;28;20311;-66
2022/01/11 03:31:07;;;;;;;20.37;9.57;;;;;;;5.16;72.39;102066.00;5078493;28;20686;-66
2022/01/11 03:33:35;;;;;;;24.17;10.30;;;;;;;5.02;72.38;102061.41;5076645;28;20235;-66
2022/01/11 03:36:03;;;;;;;19.50;10.30;;;;;;;5.10;72.58;102061.06;5080559;28;20225;-66
2022/01/11 03:38:33;;;;;;;24.40;9.47;;;;;;;5.12;72.37;102069.69;5070517;28;20214;-66
2022/01/11 03:41:01;;;;;;;21.97;10.13;;;;;;;4.87;73.05;102070.88;5080204;28;20245;-66
2022/01/11 03:43:35;;;;;;;20.87;8.93;;;;;;;5.13;72.55;102081.94;5088005;28;20303;-66
2022/01/11 03:46:04;;;;;;;22.70;9.97;;;;;;;5.12;72.10;102080.22;5076159;28;20215;-68
2022/01/11 03:48:33;;;;;;;17.57;8.83;;;;;;;5.17;71.74;102078.22;5084735;28;20230;-70
2022/01/11 03:51:01;;;;;;;20.87;9.50;;;;;;;5.01;72.54;102079.91;5084723;28;20216;-66
2022/01/11 03:53:34;;;;;;;23.77;8.90;;;;;;;5.01;72.30;102087.78;5084431;28;20206;-66
2022/01/11 03:56:21;;;;;;;23.80;9.57;;;;;;;4.96;72.29;102082.72;5080958;28;20498;-66
2022/01/11 03:58:51;;;;;;;24.10;9.47;;;;;;;4.79;72.89;102082.69;5082153;28;20222;-66
2022/01/11 04:01:19;;;;;;;21.33;9.43;;;;;;;5.07;71.96;102090.13;5077528;28;20664;-66
2022/01/11 04:03:50;;;;;;;21.37;9.37;;;;;;;5.13;71.84;102092.44;5084187;28;20230;-67
2022/01/11 04:06:17;;;;;;;17.00;8.10;;;;;;;5.12;71.80;102096.00;5076406;28;20206;-67
2022/01/11 04:08:46;;;;;;;21.27;8.37;;;;;;;4.93;72.34;102090.75;5082728;28;20253;-65
2022/01/11 04:11:14;;;;;;;19.80;9.17;;;;;;;4.96;72.72;102089.78;5083390;28;20302;-65
2022/01/11 04:13:42;;;;;;;21.60;8.83;;;;;;;5.06;71.82;102091.03;5095346;28;20266;-66
2022/01/11 04:16:10;;;;;;;24.00;8.60;;;;;;;5.05;72.05;102091.97;5101271;28;20293;-66
2022/01/11 04:18:38;;;;;;;16.10;8.33;;;;;;;5.18;71.79;102100.97;5099804;27;20206;-66
2022/01/11 04:21:10;;;;;;;21.37;9.47;;;;;;;5.07;71.79;102098.00;5096417;28;20226;-66
2022/01/11 04:23:38;;;;;;;23.13;9.77;;;;;;;5.17;71.41;102102.75;5102542;27;20202;-67
2022/01/11 04:26:06;;;;;;;21.87;9.90;;;;;;;4.92;72.18;102092.53;5093994;28;20255;-67
2022/01/11 04:28:34;;;;;;;22.00;9.57;;;;;;;5.04;71.66;102108.66;5102033;27;20202;-67
2022/01/11 04:31:01;;;;;;;17.97;9.33;;;;;;;5.06;71.83;102105.03;5101734;28;20269;-66
2022/01/11 04:33:32;;;;;;;20.57;9.97;;;;;;;5.02;72.07;102099.97;5102237;27;20653;-67
2022/01/11 04:36:01;;;;;;;19.33;9.03;;;;;;;5.13;71.70;102102.97;5104954;28;20213;-67
2022/01/11 04:38:31;;;;;;;17.67;8.50;;;;;;;5.01;71.98;102101.78;5101956;28;20299;-66
2022/01/11 04:40:59;;;;;;;19.47;8.83;;;;;;;4.92;72.49;102104.84;5109268;27;20229;-66
2022/01/11 04:43:27;;;;;;;17.13;9.03;;;;;;;5.04;72.08;102098.16;5103405;27;20244;-66
2022/01/11 04:45:55;;;;;;;16.47;9.03;;;;;;;5.09;71.67;102101.44;5103549;27;20222;-66
2022/01/11 04:48:23;;;;;;;18.63;8.80;;;;;;;5.13;71.60;102108.22;5095780;28;20206;-67
2022/01/11 04:50:52;;;;;;;21.23;8.83;;;;;;;5.15;71.61;102109.88;5095750;28;20230;-67
2022/01/11 04:53:19;;;;;;;16.17;8.30;;;;;;;5.14;71.57;102112.56;5101128;27;20241;-66
2022/01/11 04:55:48;;;;;;;18.00;8.70;;;;;;;5.13;71.74;102113.47;5095101;27;20305;-66
2022/01/11 04:58:17;;;;;;;19.83;9.07;;;;;;;5.10;71.86;102119.72;5097251;27;20219;-67
2022/01/11 05:00:45;;;;;;;23.73;9.53;;;;;;;5.05;72.02;102115.63;5097743;28;20238;-66
2022/01/11 05:03:13;;;;;;;16.50;9.10;;;;;;;5.20;71.53;102126.25;5097882;28;20247;-66
2022/01/11 05:05:41;;;;;;;21.73;9.57;;;;;;;5.12;71.82;102127.56;5098487;27;20217;-66
2022/01/11 05:08:09;;;;;;;18.33;8.30;;;;;;;4.85;72.67;102130.56;5098899;28;20588;-66
2022/01/11 05:10:42;;;;;;;18.50;8.90;;;;;;;4.89;72.75;102131.28;5110625;27;20780;-66
2022/01/11 05:13:12;;;;;;;22.93;9.27;;;;;;;5.03;72.23;102133.25;5098035;28;20233;-66
2022/01/11 05:15:41;;;;;;;16.23;8.30;;;;;;;4.87;72.71;102136.59;5096559;28;20244;-66
2022/01/11 05:18:09;;;;;;;18.33;8.43;;;;;;;4.97;72.13;102137.03;5105299;27;20248;-66
2022/01/11 05:20:38;;;;;;;16.60;9.13;;;;;;;4.96;72.64;102137.09;5102239;27;20309;-66
2022/01/11 05:23:09;;;;;;;19.80;8.80;;;;;;;5.01;72.35;102135.97;5097994;28;20232;-66
2022/01/11 05:25:38;;;;;;;16.73;7.90;;;;;;;5.12;71.86;102135.44;5102816;28;20313;-66
2022/01/11 05:28:06;;;;;;;16.13;8.70;;;;;;;5.20;71.60;102135.94;5101285;28;20731;-66
2022/01/11 05:30:35;;;;;;;21.27;8.50;;;;;;;5.12;71.81;102138.06;5100787;27;20588;-66
2022/01/11 05:33:03;;;;;;;18.10;8.87;;;;;;;4.98;72.04;102140.50;5099792;27;20567;-66
2022/01/11 05:35:31;;;;;;;17.60;8.93;;;;;;;5.09;72.04;102140.88;5097046;27;20238;-67
2022/01/11 05:37:59;;;;;;;16.80;9.07;;;;;;;5.12;72.45;102153.84;5094227;28;20210;-67
2022/01/11 05:40:27;;;;;;;22.43;9.33;;;;;;;5.16;72.03;102144.91;5100744;27;20217;-67
2022/01/11 05:42:55;;;;;;;20.57;9.77;;;;;;;4.86;73.39;102148.03;5095132;27;20252;-66
2022/01/11 05:45:23;;;;;;;19.07;8.83;;;;;;;5.05;72.63;102152.44;5104789;27;20288;-66
2022/01/11 05:47:53;;;;;;;19.70;9.63;;;;;;;5.13;72.05;102152.94;5085056;27;20241;-64
2022/01/11 05:50:23;;;;;;;19.50;9.57;;;;;;;4.92;72.87;102147.75;5099327;28;20244;-65
2022/01/11 05:52:51;;;;;;;16.03;8.77;;;;;;;5.03;72.69;102151.66;5094315;28;20267;-66
2022/01/11 05:55:19;;;;;;;19.87;9.30;;;;;;;5.06;72.27;102154.16;5103264;27;20273;-66
2022/01/11 05:57:47;;;;;;;20.87;9.47;;;;;;;5.13;71.95;102156.41;5104415;27;20275;-66
2022/01/11 06:00:17;;;;;;;21.50;9.70;;;;;;;5.08;71.85;102155.78;5099282;27;20313;-66
2022/01/11 06:02:47;;;;;;;20.30;8.87;;;;;;;4.95;72.77;102161.69;5093771;28;20629;-66
2022/01/11 06:05:17;;;;;;;18.57;9.33;;;;;;;4.79;72.83;102164.16;5100174;28;20308;-66
2022/01/11 06:07:46;;;;;;;22.43;9.83;;;;;;;4.93;73.00;102167.84;5103279;27;20209;-66
2022/01/11 06:10:15;;;;;;;20.40;9.67;;;;;;;5.04;72.20;102163.88;5103568;27;20244;-67
2022/01/11 06:12:43;;;;;;;25.23;9.37;;;;;;;5.14;71.98;102163.38;5104374;27;20305;-66
2022/01/11 06:15:11;;;;;;;22.80;9.57;;;;;;;5.21;71.71;102169.19;5099171;28;20293;-65
2022/01/11 06:17:39;;;;;;;19.80;9.00;;;;;;;5.02;72.05;102163.94;5102382;27;20232;-66
2022/01/11 06:20:08;;;;;;;22.57;10.17;;;;;;;5.07;72.42;102171.63;5105321;28;20240;-67
2022/01/11 06:22:37;;;;;;;18.57;10.17;;;;;;;5.09;71.94;102170.66;5100152;27;20316;-66
2022/01/11 06:25:07;;;;;;;18.73;8.97;;;;;;;4.93;72.69;102172.25;5100568;27;20305;-66
2022/01/11 06:27:39;;;;;;;22.63;10.17;;;;;;;5.15;72.06;102169.50;5104377;28;20246;-66
2022/01/11 06:30:14;;;;;;;21.73;10.27;;;;;;;5.08;72.18;102179.47;5098141;28;20201;-66
2022/01/11 06:32:43;;;;;;;18.10;9.03;;;;;;;4.90;72.96;102181.16;5099212;27;20305;-66
2022/01/11 06:35:12;;;;;;;21.07;9.83;;;;;;;5.12;72.28;102177.53;5103920;27;20246;-66
2022/01/11 06:37:41;;;;;;;22.07;9.37;;;;;;;5.08;72.16;102181.22;5099401;28;20231;-66
2022/01/11 06:40:11;;;;;;;22.73;10.07;;;;;;;5.02;72.26;102178.88;5103155;28;20300;-66
2022/01/11 06:42:39;;;;;;;21.97;9.70;;;;;;;4.89;73.21;102189.09;5104427;28;20237;-66
2022/01/11 06:45:08;;;;;;;20.33;9.77;;;;;;;5.00;72.72;102180.75;5103421;28;20244;-66
2022/01/11 06:47:36;;;;;;;25.83;9.50;;;;;;;4.89;73.25;102179.44;5099575;28;20753;-67
2022/01/11 06:50:04;;;;;;;21.57;9.67;;;;;;;4.92;73.19;102184.53;5106980;28;20631;-65
2022/01/11 06:52:32;;;;;;;21.07;9.30;;;;;;;4.52;74.49;102185.50;5099950;28;20757;-66
2022/01/11 06:55:01;;;;;;;18.77;9.20;;;;;;;4.39;75.72;102191.38;5095714;28;20246;-66
2022/01/11 06:57:29;;;;;;;21.50;9.33;;;;;;;4.59;75.08;102196.59;5096846;28;20242;-66
2022/01/11 06:59:57;;;;;;;19.13;9.43;;;;;;;4.95;73.55;102195.84;5107019;28;20229;-66
2022/01/11 07:02:25;;;;;;;22.00;9.03;;;;;;;5.02;72.92;102194.63;5095035;28;20321;-66
2022/01/11 07:04:52;;;;;;;16.73;9.37;;;;;;;4.92;73.37;102187.19;5093632;28;20241;-66
2022/01/11 07:07:20;;;;;;;20.43;9.03;;;;;;;4.65;74.16;102201.59;5107692;28;20210;-66
2022/01/11 07:09:48;;;;;;;19.77;9.37;;;;;;;5.05;73.21;102208.50;5099534;28;20241;-66
2022/01/11 07:12:17;;;;;;;24.20;9.10;;;;;;;5.15;72.57;102201.06;5095697;28;20686;-66
2022/01/11 07:14:45;;;;;;;17.90;9.43;;;;;;;4.96;72.86;102206.31;5105388;28;20231;-67
2022/01/11 07:17:15;;;;;;;23.53;9.33;;;;;;;5.13;73.02;102214.28;5100425;28;20705;-66
2022/01/11 07:19:43;;;;;;;23.30;9.83;;;;;;;4.75;74.36;102208.13;5108086;27;20677;-67
2022/01/11 07:22:11;;;;;;;23.33;9.43;;;;;;;5.04;73.54;102213.84;5104792;27;20225;-66
2022/01/11 07:24:38;;;;;;;22.20;9.57;;;;;;;5.16;72.68;102214.13;5107629;27;20464;-66
2022/01/11 07:27:06;;;;;;;22.17;8.60;;;;;;;5.21;72.38;102220.03;5108452;27;20221;-68
2022/01/11 07:29:35;;;;;;;17.43;8.60;;;;;;;5.18;72.77;102225.44;5108107;27;20257;-66
2022/01/11 07:32:03;;;;;;;27.37;10.13;;;;;;;5.18;72.78;102221.97;5106042;28;20297;-66
2022/01/11 07:34:31;;;;;;;17.27;8.57;;;;;;;5.23;72.51;102225.22;5105270;28;20238;-66
2022/01/11 07:36:59;;;;;;;20.37;9.53;;;;;;;5.24;72.26;102227.78;5102458;27;20241;-66
2022/01/11 07:39:27;;;;;;;19.90;9.07;;;;;;;5.24;72.28;102227.78;5108907;27;20206;-66
2022/01/11 07:41:56;;;;;;;17.23;9.13;;;;;;;5.26;72.51;102232.97;5101695;28;20304;-66
2022/01/11 07:44:24;;;;;;;18.77;8.83;;;;;;;5.08;72.77;102226.78;5100633;27;20309;-65
2022/01/11 07:46:54;;;;;;;20.30;9.32;;;;;;;5.21;72.25;102235.81;5099262;28;20447;-59
2022/01/11 07:49:22;;;;;;;17.60;8.63;;;;;;;4.91;73.64;102240.72;5099037;27;20215;-60
2022/01/11 07:51:49;;;;;;;20.73;9.97;;;;;;;4.99;73.96;102234.25;5100689;27;20301;-62
2022/01/11 07:54:17;;;;;;;18.43;9.27;;;;;;;5.11;73.32;102223.16;5105805;27;20218;-61
2022/01/11 07:56:45;;;;;;;21.93;9.10;;;;;;;5.28;72.74;102239.84;5105270;28;20260;-61
2022/01/11 07:59:13;;;;;;;18.37;8.63;;;;;;;4.76;74.89;102240.50;5101887;27;20220;-61
2022/01/11 08:01:41;;;;;;;19.93;9.90;;;;;;;4.93;74.58;102243.25;5094934;27;20303;-62
2022/01/11 08:04:10;;;;;;;20.97;9.20;;;;;;;5.18;73.78;102245.63;5103553;28;20261;-59
2022/01/11 08:06:39;;;;;;;21.17;10.23;;;;;;;5.19;73.41;102244.72;5099291;28;20198;-62
2022/01/11 08:09:08;;;;;;;22.27;9.50;;;;;;;5.11;73.41;102247.66;5108480;27;20575;-64
2022/01/11 08:11:36;;;;;;;21.60;9.47;;;;;;;5.30;73.22;102245.06;5099615;27;20214;-61
2022/01/11 08:14:03;;;;;;;15.93;8.63;;;;;;;5.37;72.95;102246.47;5097896;27;20234;-62
2022/01/11 08:16:31;;;;;;;22.73;10.40;;;;;;;5.33;72.90;102244.91;5111168;27;20211;-61
2022/01/11 08:18:59;;;;;;;19.17;9.80;;;;;;;5.24;73.29;102248.84;5115282;27;20213;-61
2022/01/11 08:21:28;;;;;;;22.20;10.57;;;;;;;5.47;72.66;102260.91;5095498;28;20308;-62
2022/01/11 08:23:56;;;;;;;21.70;10.60;;;;;;;5.54;72.24;102257.06;5093757;28;20318;-61
2022/01/11 08:26:23;;;;;;;21.53;9.67;;;;;;;5.51;72.35;102259.84;5102546;27;20743;-62
2022/01/11 08:28:51;;;;;;;21.67;9.90;;;;;;;5.40;72.42;102262.13;5102182;27;20258;-61
2022/01/11 08:31:20;;;;;;;20.77;10.03;;;;;;;5.52;72.69;102265.97;5109693;27;20236;-61
2022/01/11 08:33:48;;;;;;;19.60;9.70;;;;;;;5.57;72.32;102270.06;5099178;27;20214;-61
2022/01/11 08:36:16;;;;;;;17.93;9.07;;;;;;;5.50;72.63;102260.78;5100038;27;20671;-61
2022/01/11 08:38:45;;;;;;;20.10;10.40;;;;;;;5.55;72.41;102269.28;5109472;27;20213;-60
2022/01/11 08:41:14;;;;;;;20.90;9.77;;;;;;;5.52;73.15;102273.88;5095309;27;20256;-60
2022/01/11 08:43:42;;;;;;;18.43;10.23;;;;;;;5.57;72.75;102270.06;5093456;28;20310;-61
2022/01/11 08:46:10;;;;;;;20.30;9.37;;;;;;;5.48;72.58;102273.13;5099073;28;20210;-59
2022/01/11 08:48:37;;;;;;;24.10;10.87;;;;;;;5.58;72.74;102273.56;5098763;27;20643;-60
2022/01/11 08:51:05;;;;;;;25.50;10.00;;;;;;;5.63;72.52;102282.09;5108707;27;20207;-60
2022/01/11 08:53:33;;;;;;;17.33;9.90;;;;;;;5.70;72.50;102278.25;5097545;27;20628;-61
2022/01/11 08:56:06;;;;;;;21.27;9.93;;;;;;;5.72;72.45;102275.56;5099531;28;20264;-61
2022/01/11 08:58:34;;;;;;;18.83;9.97;;;;;;;5.59;72.92;102281.41;5098497;28;20207;-61
2022/01/11 09:01:01;;;;;;;22.20;10.77;;;;;;;5.75;72.39;102280.66;5097277;28;20301;-62
2022/01/11 09:03:29;;;;;;;19.93;9.60;;;;;;;5.81;72.26;102285.63;5094218;27;20234;-60
2022/01/11 09:05:57;;;;;;;19.40;9.60;;;;;;;5.90;71.88;102280.78;5103214;27;20206;-59
2022/01/11 09:08:26;;;;;;;21.17;10.90;;;;;;;5.84;72.05;102288.13;5112033;28;20221;-60
2022/01/11 09:10:54;;;;;;;21.03;10.40;;;;;;;5.70;72.74;102288.78;5109248;27;20218;-60
2022/01/11 09:13:25;;;;;;;21.77;10.90;;;;;;;5.82;72.49;102290.81;5103999;27;20273;-61
2022/01/11 09:15:53;;;;;;;22.37;10.43;;;;;;;5.62;72.63;102297.06;5090870;27;20270;-62
2022/01/11 09:18:21;;;;;;;23.53;10.70;;;;;;;5.73;72.87;102295.66;5108312;27;20231;-61
2022/01/11 09:20:49;;;;;;;24.77;11.10;;;;;;;5.83;72.69;102299.56;5101510;28;20215;-61
2022/01/11 09:23:17;;;;;;;21.07;10.93;;;;;;;5.81;72.99;102299.63;5103563;27;20321;-61
2022/01/11 09:25:47;;;;;;;22.27;10.67;;;;;;;5.86;73.01;102292.38;5100645;27;20294;-61
2022/01/11 09:28:16;;;;;;;17.87;10.27;;;;;;;5.88;72.68;102303.75;5107573;28;20280;-61
2022/01/11 09:30:45;;;;;;;19.80;10.63;;;;;;;5.95;72.94;102299.03;5102725;28;20243;-59
2022/01/11 09:33:14;;;;;;;24.30;11.07;;;;;;;6.02;72.37;102308.34;5098073;28;20202;-60
2022/01/11 09:35:42;;;;;;;26.03;11.70;;;;;;;6.19;72.00;102308.34;5102411;27;20202;-60
2022/01/11 09:38:10;;;;;;;24.13;10.73;;;;;;;6.10;72.40;102306.16;5097676;27;20203;-60
2022/01/11 09:40:38;;;;;;;23.73;10.57;;;;;;;6.03;72.51;102302.13;5097871;27;20243;-61
2022/01/11 09:43:06;;;;;;;20.23;10.30;;;;;;;5.96;73.28;102306.00;5106708;27;20203;-60
2022/01/11 09:45:34;;;;;;;22.40;10.93;;;;;;;6.17;72.39;102304.09;5096579;28;20206;-61
2022/01/11 09:48:04;;;;;;;19.30;10.37;;;;;;;6.02;73.18;102301.28;5100731;27;20214;-60
2022/01/11 09:50:32;;;;;;;22.53;10.33;;;;;;;6.22;72.00;102305.59;5102658;27;20216;-60
2022/01/11 09:53:00;;;;;;;21.13;10.20;;;;;;;6.21;72.14;102313.56;5101544;27;20230;-60
2022/01/11 09:55:29;;;;;;;19.67;10.63;;;;;;;6.31;71.89;102318.31;5102367;27;20207;-60
2022/01/11 09:57:57;;;;;;;21.30;10.13;;;;;;;6.34;71.46;102320.75;5092842;28;20239;-60
2022/01/11 10:00:25;;;;;;;21.27;9.90;;;;;;;6.27;71.58;102315.88;5096336;27;20241;-60
2022/01/11 10:02:53;;;;;;;19.27;10.50;;;;;;;6.30;71.36;102321.88;5097147;27;20212;-60
2022/01/11 10:05:24;;;;;;;21.23;9.33;;;;;;;6.26;71.53;102320.28;5104132;27;20259;-63
2022/01/11 10:07:52;;;;;;;16.80;8.37;;;;;;;6.20;70.93;102317.97;5105823;27;20731;-57
2022/01/11 10:10:22;;;;;;;21.00;9.57;;;;;;;6.25;71.43;102313.31;5094984;28;20654;-60
2022/01/11 10:12:52;;;;;;;19.77;10.53;;;;;;;6.20;71.19;102312.69;5096489;27;20249;-59
2022/01/11 10:15:27;;;;;;;18.33;9.73;;;;;;;6.20;71.15;102315.34;5105153;27;20204;-58
2022/01/11 10:18:01;;;;;;;20.47;9.70;;;;;;;6.34;71.04;102314.66;5117565;27;21443;-60
2022/01/11 10:20:32;;;;;;;19.07;9.93;;;;;;;6.40;70.73;102323.13;5095388;27;20272;-59
2022/01/11 10:23:02;;;;;;;16.23;8.93;;;;;;;6.35;70.51;102311.94;5098516;28;20206;-61
2022/01/11 10:25:41;;;;;;;18.37;9.43;;;;;;;6.29;71.14;102320.16;5105198;27;20288;-61
2022/01/11 10:28:08;;;;;;;17.87;9.33;;;;;;;6.34;70.59;102312.88;5103627;28;20278;-61
2022/01/11 10:30:37;;;;;;;17.83;10.13;;;;;;;6.47;70.56;102323.66;5105926;27;20211;-61
2022/01/11 10:33:08;;;;;;;22.83;10.37;;;;;;;6.39;71.01;102315.28;5099463;27;20208;-61
2022/01/11 10:35:42;;;;;;;16.93;9.17;;;;;;;6.53;70.24;102319.84;5107279;28;20254;-61
2022/01/11 10:38:24;;;;;;;16.97;9.57;;;;;;;6.54;69.63;102324.19;5104981;28;20296;-61
2022/01/11 10:40:52;;;;;;;22.57;10.70;;;;;;;6.38;70.31;102317.06;5103362;28;20675;-61
2022/01/11 10:43:22;;;;;;;19.13;9.60;;;;;;;6.25;70.74;102317.72;5107380;27;20216;-61
2022/01/11 10:45:52;;;;;;;18.53;10.13;;;;;;;6.41;70.70;102329.25;5108294;27;20222;-63
2022/01/11 10:48:22;;;;;;;24.03;9.70;;;;;;;6.60;70.22;102318.59;5104470;28;20518;-63
2022/01/11 10:50:55;;;;;;;20.37;9.53;;;;;;;6.62;69.62;102322.03;5098816;28;20240;-63
2022/01/11 10:53:25;;;;;;;20.97;10.47;;;;;;;6.56;70.08;102327.63;5094009;28;20293;-61
2022/01/11 10:55:55;;;;;;;19.77;10.00;;;;;;;6.61;69.70;102330.84;5095976;28;20315;-59
2022/01/11 10:58:41;;;;;;;20.97;10.00;;;;;;;6.61;69.58;102330.84;5104295;28;20220;-60
2022/01/11 11:01:11;;;;;;;20.37;10.23;;;;;;;6.65;69.92;102332.44;5098487;28;20234;-62
2022/01/11 11:03:39;;;;;;;18.60;10.50;;;;;;;6.70;70.32;102335.66;5102338;28;20222;-64
2022/01/11 11:06:11;;;;;;;19.57;9.53;;;;;;;6.71;70.08;102326.84;5106747;28;20310;-61
2022/01/11 11:08:41;;;;;;;21.57;9.17;;;;;;;6.64;69.85;102330.72;5095915;28;20266;-61
2022/01/11 11:11:10;;;;;;;21.40;9.50;;;;;;;6.63;70.10;102329.00;5095153;28;20212;-63
2022/01/11 11:13:41;;;;;;;17.87;9.50;;;;;;;6.30;70.65;102335.03;5098786;28;20492;-63
2022/01/11 11:16:13;;;;;;;18.00;9.50;;;;;;;6.60;70.38;102334.41;5098172;28;20208;-62
2022/01/11 11:18:43;;;;;;;16.67;10.00;;;;;;;6.75;69.67;102328.41;5108052;28;20208;-60
2022/01/11 11:21:32;;;;;;;17.37;9.47;;;;;;;6.70;69.65;102325.97;5108831;28;20661;-61
2022/01/11 11:24:02;;;;;;;25.33;10.93;;;;;;;6.70;69.77;102335.66;5103420;28;20293;-61
2022/01/11 11:26:36;;;;;;;25.43;11.17;;;;;;;6.65;70.51;102335.06;5106639;28;20279;-60
2022/01/11 11:29:05;;;;;;;26.03;10.20;;;;;;;6.62;70.54;102328.16;5092944;28;20256;-61
2022/01/11 11:31:54;;;;;;;20.00;10.17;;;;;;;6.84;69.87;102324.44;5102079;28;20333;-62